createdAt,value
2024-03-12T00:00:59.139Z,566.00
2024-03-12T00:01:59.215Z,563.00
2024-03-12T00:02:59.157Z,560.00
2024-03-12T00:03:59.446Z,559.00
2024-03-12T00:04:59.222Z,557.00
2024-03-12T00:05:59.262Z,557.00
2024-03-12T00:06:59.306Z,557.00
2024-03-12T00:07:59.328Z,554.00
2024-03-12T00:08:59.358Z,552.00
2024-03-12T00:09:59.476Z,553.00
2024-03-12T00:10:59.437Z,556.00
2024-03-12T00:11:59.481Z,557.00
2024-03-12T00:12:59.516Z,555.00
2024-03-12T00:13:59.521Z,558.00
2024-03-12T00:14:59.561Z,557.00
2024-03-12T00:15:59.677Z,557.00
2024-03-12T00:16:59.643Z,560.00
2024-03-12T00:17:59.694Z,562.00
2024-03-12T00:18:59.808Z,564.00
2024-03-12T00:19:59.725Z,565.00
2024-03-12T00:20:59.769Z,564.00
2024-03-12T00:21:59.854Z,566.00
2024-03-12T00:22:59.908Z,565.00
2024-03-12T00:24:00.300Z,564.00
2024-03-12T00:24:59.966Z,562.00
2024-03-12T00:25:59.945Z,563.00
2024-03-12T00:26:59.969Z,565.00
2024-03-12T00:28:00.192Z,564.00
2024-03-12T00:29:00.068Z,565.00
2024-03-12T00:30:00.154Z,568.00
2024-03-12T00:31:00.130Z,567.00
2024-03-12T00:32:00.178Z,569.00
2024-03-12T00:33:00.249Z,568.00
2024-03-12T00:34:00.463Z,568.00
2024-03-12T00:35:00.281Z,569.00
2024-03-12T00:36:00.324Z,568.00
2024-03-12T00:37:00.380Z,568.00
2024-03-12T00:38:00.406Z,567.00
2024-03-12T00:39:00.454Z,568.00
2024-03-12T00:40:00.509Z,567.00
2024-03-12T00:41:00.499Z,565.00
2024-03-12T00:42:00.535Z,565.00
2024-03-12T00:43:00.595Z,565.00
2024-03-12T00:44:00.633Z,564.00
2024-03-12T00:45:00.643Z,565.00
2024-03-12T00:46:00.674Z,565.00
2024-03-12T00:47:00.702Z,566.00
2024-03-12T00:48:00.827Z,566.00
2024-03-12T00:49:00.842Z,563.00
2024-03-12T00:50:00.818Z,560.00
2024-03-12T00:51:00.848Z,562.00
2024-03-12T00:52:00.916Z,566.00
2024-03-12T00:53:00.939Z,568.00
2024-03-12T00:54:00.965Z,565.00
2024-03-12T00:55:01.018Z,565.00
2024-03-12T00:56:01.041Z,565.00
2024-03-12T00:57:01.093Z,566.00
2024-03-12T00:58:01.152Z,571.00
2024-03-12T00:59:01.144Z,572.00
2024-03-12T01:00:01.216Z,571.00
2024-03-12T01:01:01.278Z,570.00
2024-03-12T01:02:01.325Z,571.00
2024-03-12T01:03:01.471Z,569.00
2024-03-12T01:04:01.448Z,570.00
2024-03-12T01:05:01.384Z,568.00
2024-03-12T01:06:01.400Z,569.00
2024-03-12T01:07:01.496Z,569.00
2024-03-12T01:08:01.645Z,567.00
2024-03-12T01:09:01.539Z,566.00
2024-03-12T01:10:01.722Z,564.00
2024-03-12T01:11:01.612Z,563.00
2024-03-12T01:12:01.649Z,563.00
2024-03-12T01:13:01.814Z,566.00
2024-03-12T01:14:01.691Z,563.00
2024-03-12T01:15:01.809Z,565.00
2024-03-12T01:16:01.768Z,566.00
2024-03-12T01:17:01.806Z,569.00
2024-03-12T01:18:01.865Z,571.00
2024-03-12T01:19:01.958Z,571.00
2024-03-12T01:20:01.954Z,571.00
2024-03-12T01:21:01.965Z,570.00
2024-03-12T01:22:02.051Z,570.00
2024-03-12T01:23:02.022Z,568.00
2024-03-12T01:24:02.059Z,570.00
2024-03-12T01:25:02.206Z,569.00
2024-03-12T01:26:02.131Z,569.00
2024-03-12T01:27:02.166Z,570.00
2024-03-12T01:28:02.392Z,570.00
2024-03-12T01:29:02.261Z,572.00
2024-03-12T01:30:02.330Z,572.00
2024-03-12T01:31:02.340Z,572.00
2024-03-12T01:32:02.501Z,571.00
2024-03-12T01:33:02.422Z,569.00
2024-03-12T01:34:02.541Z,570.00
2024-03-12T01:35:02.450Z,569.00
2024-03-12T01:36:02.478Z,568.00
2024-03-12T01:37:02.551Z,566.00
2024-03-12T01:38:02.552Z,564.00
2024-03-12T01:39:02.584Z,565.00
2024-03-12T01:40:02.733Z,564.00
2024-03-12T01:41:02.628Z,564.00
2024-03-12T01:42:02.704Z,564.00
2024-03-12T01:43:03.041Z,564.00
2024-03-12T01:44:02.754Z,563.00
2024-03-12T01:45:02.819Z,564.00
2024-03-12T01:46:02.885Z,564.00
2024-03-12T01:47:02.858Z,564.00
2024-03-12T01:48:02.943Z,565.00
2024-03-12T01:49:02.958Z,563.00
2024-03-12T01:50:02.945Z,562.00
2024-03-12T01:51:02.981Z,562.00
2024-03-12T01:52:03.144Z,561.00
2024-03-12T01:53:03.048Z,561.00
2024-03-12T01:54:03.085Z,560.00
2024-03-12T01:55:03.178Z,562.00
2024-03-12T01:56:03.185Z,563.00
2024-03-12T01:57:03.187Z,565.00
2024-03-12T01:58:03.489Z,566.00
2024-03-12T01:59:03.266Z,566.00
2024-03-12T02:00:03.272Z,564.00
2024-03-12T02:01:03.422Z,567.00
2024-03-12T02:02:03.358Z,566.00
2024-03-12T02:03:03.389Z,566.00
2024-03-12T02:04:03.554Z,568.00
2024-03-12T02:05:03.458Z,566.00
2024-03-12T02:06:03.476Z,564.00
2024-03-12T02:07:03.543Z,565.00
2024-03-12T02:08:03.518Z,563.00
2024-03-12T02:09:03.568Z,564.00
2024-03-12T02:10:03.698Z,565.00
2024-03-12T02:11:03.672Z,562.00
2024-03-12T02:12:03.664Z,561.00
2024-03-12T02:13:03.911Z,563.00
2024-03-12T02:14:03.743Z,562.00
2024-03-12T02:15:03.769Z,561.00
2024-03-12T02:16:03.829Z,561.00
2024-03-12T02:17:03.841Z,561.00
2024-03-12T02:18:04.009Z,564.00
2024-03-12T02:19:03.976Z,562.00
2024-03-12T02:20:03.986Z,562.00
2024-03-12T02:21:03.995Z,563.00
2024-03-12T02:22:04.073Z,563.00
2024-03-12T02:23:04.059Z,563.00
2024-03-12T02:24:04.094Z,563.00
2024-03-12T02:25:04.244Z,565.00
2024-03-12T02:26:04.173Z,567.00
2024-03-12T02:27:04.191Z,569.00
2024-03-12T02:28:04.641Z,569.00
2024-03-12T02:29:04.264Z,568.00
2024-03-12T02:30:04.360Z,568.00
2024-03-12T02:31:04.410Z,566.00
2024-03-12T02:32:04.396Z,566.00
2024-03-12T02:33:04.489Z,565.00
2024-03-12T02:34:04.459Z,563.00
2024-03-12T02:35:04.485Z,562.00
2024-03-12T02:36:04.518Z,560.00
2024-03-12T02:37:04.708Z,555.00
2024-03-12T02:38:04.590Z,556.00
2024-03-12T02:39:04.617Z,554.00
2024-03-12T02:40:04.760Z,556.00
2024-03-12T02:41:04.690Z,557.00
2024-03-12T02:42:04.736Z,558.00
2024-03-12T02:43:04.906Z,559.00
2024-03-12T02:44:04.844Z,558.00
2024-03-12T02:45:04.846Z,560.00
2024-03-12T02:46:05.115Z,560.00
2024-03-12T02:47:04.937Z,560.00
2024-03-12T02:48:04.999Z,560.00
2024-03-12T02:49:05.081Z,562.00
2024-03-12T02:50:05.019Z,562.00
2024-03-12T02:51:05.101Z,564.00
2024-03-12T02:52:05.168Z,565.00
2024-03-12T02:53:05.110Z,564.00
2024-03-12T02:54:05.152Z,564.00
2024-03-12T02:55:05.235Z,567.00
2024-03-12T02:56:05.228Z,568.00
2024-03-12T02:57:05.253Z,567.00
2024-03-12T02:58:05.369Z,567.00
2024-03-12T02:59:05.333Z,567.00
2024-03-12T03:00:05.336Z,565.00
2024-03-12T03:01:05.427Z,564.00
2024-03-12T03:02:05.418Z,566.00
2024-03-12T03:03:05.474Z,565.00
2024-03-12T03:04:05.608Z,566.00
2024-03-12T03:05:05.529Z,563.00
2024-03-12T03:06:05.539Z,562.00
2024-03-12T03:07:05.698Z,563.00
2024-03-12T03:08:05.625Z,563.00
2024-03-12T03:09:05.658Z,562.00
2024-03-12T03:10:05.967Z,563.00
2024-03-12T03:11:05.740Z,562.00
2024-03-12T03:12:05.785Z,562.00
2024-03-12T03:13:05.828Z,561.00
2024-03-12T03:14:05.859Z,561.00
2024-03-12T03:15:05.864Z,558.00
2024-03-12T03:16:05.961Z,556.00
2024-03-12T03:17:05.910Z,558.00
2024-03-12T03:18:05.996Z,559.00
2024-03-12T03:19:06.055Z,558.00
2024-03-12T03:20:06.023Z,558.00
2024-03-12T03:21:06.068Z,556.00
2024-03-12T03:22:06.162Z,559.00
2024-03-12T03:23:06.123Z,561.00
2024-03-12T03:24:06.174Z,559.00
2024-03-12T03:25:06.209Z,558.00
2024-03-12T03:26:06.213Z,560.00
2024-03-12T03:27:06.395Z,559.00
2024-03-12T03:28:06.338Z,559.00
2024-03-12T03:29:06.369Z,557.00
2024-03-12T03:30:06.361Z,556.00
2024-03-12T03:31:06.438Z,554.00
2024-03-12T03:32:06.442Z,554.00
2024-03-12T03:33:06.492Z,551.00
2024-03-12T03:34:06.624Z,551.00
2024-03-12T03:35:06.535Z,552.00
2024-03-12T03:36:06.561Z,551.00
2024-03-12T03:37:06.676Z,552.00
2024-03-12T03:38:06.626Z,552.00
2024-03-12T03:39:06.653Z,553.00
2024-03-12T03:40:06.722Z,551.00
2024-03-12T03:41:06.716Z,551.00
2024-03-12T03:42:06.737Z,552.00
2024-03-12T03:43:06.902Z,552.00
2024-03-12T03:44:06.819Z,551.00
2024-03-12T03:45:06.845Z,553.00
2024-03-12T03:46:06.962Z,554.00
2024-03-12T03:47:06.982Z,556.00
2024-03-12T03:48:06.962Z,555.00
2024-03-12T03:49:07.044Z,556.00
2024-03-12T03:50:06.984Z,556.00
2024-03-12T03:51:06.990Z,554.00
2024-03-12T03:52:07.085Z,553.00
2024-03-12T03:53:07.069Z,552.00
2024-03-12T03:54:07.096Z,550.00
2024-03-12T03:55:07.278Z,548.00
2024-03-12T03:56:07.165Z,550.00
2024-03-12T03:57:07.258Z,549.00
2024-03-12T03:58:07.285Z,547.00
2024-03-12T03:59:07.295Z,546.00
2024-03-12T04:00:07.318Z,546.00
2024-03-12T04:01:07.392Z,547.00
2024-03-12T04:02:07.361Z,545.00
2024-03-12T04:03:07.413Z,545.00
2024-03-12T04:04:07.524Z,545.00
2024-03-12T04:05:07.481Z,545.00
2024-03-12T04:06:07.538Z,545.00
2024-03-12T04:07:07.663Z,543.00
2024-03-12T04:08:07.708Z,542.00
2024-03-12T04:09:07.642Z,543.00
2024-03-12T04:10:07.708Z,542.00
2024-03-12T04:11:07.681Z,545.00
2024-03-12T04:12:07.725Z,546.00
2024-03-12T04:13:07.854Z,546.00
2024-03-12T04:14:07.788Z,546.00
2024-03-12T04:15:07.825Z,547.00
2024-03-12T04:16:07.943Z,548.00
2024-03-12T04:17:07.932Z,547.00
2024-03-12T04:18:07.987Z,547.00
2024-03-12T04:19:08.144Z,545.00
2024-03-12T04:20:07.972Z,545.00
2024-03-12T04:21:08.013Z,544.00
2024-03-12T04:22:08.265Z,543.00
2024-03-12T04:23:08.072Z,544.00
2024-03-12T04:24:08.100Z,549.00
2024-03-12T04:25:08.478Z,549.00
2024-03-12T04:26:08.192Z,549.00
2024-03-12T04:27:08.197Z,550.00
2024-03-12T04:28:08.329Z,551.00
2024-03-12T04:29:08.321Z,550.00
2024-03-12T04:30:08.309Z,549.00
2024-03-12T04:31:08.493Z,550.00
2024-03-12T04:32:08.381Z,550.00
2024-03-12T04:33:08.451Z,549.00
2024-03-12T04:34:08.489Z,549.00
2024-03-12T04:35:08.465Z,546.00
2024-03-12T04:36:08.490Z,543.00
2024-03-12T04:37:08.594Z,542.00
2024-03-12T04:38:08.582Z,543.00
2024-03-12T04:39:08.624Z,542.00
2024-03-12T04:40:15.980Z,559.00
2024-03-12T04:41:15.905Z,558.00
2024-03-12T04:42:15.901Z,557.00
2024-03-12T04:43:16.006Z,553.00
2024-03-12T04:44:15.899Z,552.00
2024-03-12T04:45:15.975Z,551.00
2024-03-12T04:46:15.935Z,551.00
2024-03-12T04:47:15.893Z,550.00
2024-03-12T04:48:15.953Z,552.00
2024-03-12T04:49:15.994Z,553.00
2024-03-12T04:50:16.142Z,553.00
2024-03-12T04:51:15.919Z,554.00
2024-03-12T04:52:15.903Z,555.00
2024-03-12T04:53:15.935Z,556.00
2024-03-12T04:54:15.925Z,556.00
2024-03-12T04:55:16.033Z,557.00
2024-03-12T04:56:15.920Z,556.00
2024-03-12T04:57:15.915Z,557.00
2024-03-12T04:58:15.946Z,556.00
2024-03-12T04:59:15.928Z,556.00
2024-03-12T05:00:16.785Z,554.00
2024-03-12T05:01:15.986Z,552.00
2024-03-12T05:02:15.919Z,551.00
2024-03-12T05:03:15.932Z,552.00
2024-03-12T05:04:21.527Z,551.00
2024-03-12T05:05:16.938Z,552.00
2024-03-12T05:06:15.974Z,553.00
2024-03-12T05:07:15.977Z,554.00
2024-03-12T05:08:15.961Z,557.00
2024-03-12T05:09:15.960Z,558.00
2024-03-12T05:10:16.024Z,557.00
2024-03-12T05:11:15.982Z,558.00
2024-03-12T05:12:15.957Z,557.00
2024-03-12T05:13:16.158Z,556.00
2024-03-12T05:14:15.981Z,556.00
2024-03-12T05:15:15.951Z,557.00
2024-03-12T05:16:15.987Z,559.00
2024-03-12T05:17:15.953Z,559.00
2024-03-12T05:18:16.076Z,559.00
2024-03-12T05:19:15.977Z,558.00
2024-03-12T05:20:16.031Z,553.00
2024-03-12T05:21:15.973Z,555.00
2024-03-12T05:22:16.065Z,551.00
2024-03-12T05:23:15.959Z,552.00
2024-03-12T05:24:15.986Z,553.00
2024-03-12T05:25:16.037Z,555.00
2024-03-12T05:26:15.965Z,555.00
2024-03-12T05:27:15.959Z,557.00
2024-03-12T05:28:16.006Z,557.00
2024-03-12T05:29:15.964Z,557.00
2024-03-12T05:30:16.296Z,555.00
2024-03-12T05:31:16.034Z,554.00
2024-03-12T05:32:15.978Z,553.00
2024-03-12T05:33:16.484Z,553.00
2024-03-12T05:34:16.051Z,555.00
2024-03-12T05:35:16.054Z,555.00
2024-03-12T05:36:16.076Z,552.00
2024-03-12T05:37:16.123Z,552.00
2024-03-12T05:38:16.097Z,553.00
2024-03-12T05:39:16.124Z,554.00
2024-03-12T05:40:16.253Z,554.00
2024-03-12T05:41:16.385Z,554.00
2024-03-12T05:42:16.209Z,554.00
2024-03-12T05:43:16.396Z,553.00
2024-03-12T05:44:16.246Z,553.00
2024-03-12T05:45:16.244Z,554.00
2024-03-12T05:46:16.556Z,554.00
2024-03-12T05:47:16.289Z,552.00
2024-03-12T05:48:16.312Z,551.00
2024-03-12T05:49:16.452Z,548.00
2024-03-12T05:50:16.363Z,549.00
2024-03-12T05:51:16.374Z,552.00
2024-03-12T05:52:16.497Z,553.00
2024-03-12T05:53:16.436Z,553.00
2024-03-12T05:54:16.442Z,553.00
2024-03-12T05:55:16.710Z,551.00
2024-03-12T05:56:18.736Z,553.00
2024-03-12T05:57:16.490Z,551.00
2024-03-12T05:58:16.544Z,550.00
2024-03-12T05:59:16.484Z,551.00
2024-03-12T06:00:16.477Z,552.00
2024-03-12T06:01:16.671Z,552.00
2024-03-12T06:02:16.524Z,552.00
2024-03-12T06:03:16.495Z,554.00
2024-03-12T06:04:16.640Z,557.00
2024-03-12T06:05:16.490Z,556.00
2024-03-12T06:06:16.479Z,556.00
2024-03-12T06:07:19.010Z,556.00
2024-03-12T06:08:16.480Z,556.00
2024-03-12T06:09:16.514Z,555.00
2024-03-12T06:10:16.621Z,555.00
2024-03-12T06:11:16.525Z,554.00
2024-03-12T06:12:16.657Z,552.00
2024-03-12T06:13:16.536Z,550.00
2024-03-12T06:14:16.538Z,548.00
2024-03-12T06:15:16.499Z,546.00
2024-03-12T06:16:16.550Z,546.00
2024-03-12T06:17:16.522Z,548.00
2024-03-12T06:18:16.492Z,547.00
2024-03-12T06:19:16.624Z,547.00
2024-03-12T06:20:16.479Z,549.00
2024-03-12T06:21:16.516Z,551.00
2024-03-12T06:22:16.530Z,551.00
2024-03-12T06:23:16.495Z,547.00
2024-03-12T06:24:16.515Z,549.00
2024-03-12T06:25:16.621Z,550.00
2024-03-12T06:26:16.493Z,550.00
2024-03-12T06:27:16.495Z,550.00
2024-03-12T06:28:16.569Z,549.00
2024-03-12T06:29:16.561Z,550.00
2024-03-12T06:30:16.513Z,551.00
2024-03-12T06:31:16.606Z,550.00
2024-03-12T06:32:16.523Z,550.00
2024-03-12T06:33:16.553Z,549.00
2024-03-12T06:34:16.563Z,548.00
2024-03-12T06:35:16.521Z,544.00
2024-03-12T06:36:16.505Z,522.00
2024-03-12T06:37:16.612Z,526.00
2024-03-12T06:38:16.505Z,539.00
2024-03-12T06:39:16.541Z,547.00
2024-03-12T06:40:16.564Z,556.00
2024-03-12T06:41:16.534Z,602.00
2024-03-12T06:42:16.681Z,590.00
2024-03-12T06:43:16.556Z,598.00
2024-03-12T06:44:17.459Z,606.00
2024-03-12T06:45:16.582Z,614.00
2024-03-12T06:46:16.704Z,646.00
2024-03-12T06:47:16.636Z,694.00
2024-03-12T06:48:16.706Z,696.00
2024-03-12T06:49:43.578Z,697.00
2024-03-12T06:50:16.662Z,730.00
2024-03-12T06:51:16.670Z,793.00
2024-03-12T06:52:16.736Z,795.00
2024-03-12T06:53:38.729Z,834.00
2024-03-12T06:54:16.673Z,878.00
2024-03-12T06:55:17.402Z,879.00
2024-03-12T06:56:16.680Z,886.00
2024-03-12T06:57:16.671Z,915.00
2024-03-12T06:58:16.697Z,968.00
2024-03-12T06:59:16.667Z,991.00
2024-03-12T07:00:16.679Z,1025.00
2024-03-12T07:01:16.980Z,1045.00
2024-03-12T07:02:16.740Z,1063.00
2024-03-12T07:03:16.699Z,1110.00
2024-03-12T07:04:16.697Z,1122.00
2024-03-12T07:05:16.688Z,1131.00
2024-03-12T07:06:16.692Z,1136.00
2024-03-12T07:07:16.706Z,1152.00
2024-03-12T07:08:16.678Z,1178.00
2024-03-12T07:09:16.693Z,1197.00
2024-03-12T07:10:16.738Z,1212.00
2024-03-12T07:11:16.887Z,1219.00
2024-03-12T07:12:16.677Z,1237.00
2024-03-12T07:13:16.782Z,1270.00
2024-03-12T07:14:16.688Z,1290.00
2024-03-12T07:15:16.700Z,1309.00
2024-03-12T07:16:16.743Z,1327.00
2024-03-12T07:17:16.693Z,1344.00
2024-03-12T07:18:16.749Z,1352.00
2024-03-12T07:19:16.826Z,1363.00
2024-03-12T07:20:16.923Z,1374.00
2024-03-12T07:21:16.698Z,1396.00
2024-03-12T07:22:16.693Z,1421.00
2024-03-12T07:23:16.689Z,1448.00
2024-03-12T07:24:16.721Z,1459.00
2024-03-12T07:25:16.747Z,1468.00
2024-03-12T07:26:16.708Z,1490.00
2024-03-12T07:27:16.728Z,1508.00
2024-03-12T07:28:17.445Z,1525.00
2024-03-12T07:29:16.743Z,1557.00
2024-03-12T07:30:16.776Z,1578.00
2024-03-12T07:31:16.938Z,1591.00
2024-03-12T07:32:16.899Z,1607.00
2024-03-12T07:33:17.007Z,1617.00
2024-03-12T07:34:18.705Z,1639.00
2024-03-12T07:35:17.053Z,1657.00
2024-03-12T07:36:17.088Z,1680.00
2024-03-12T07:37:17.186Z,1694.00
2024-03-12T07:38:17.187Z,1699.00
2024-03-12T07:39:17.304Z,1712.00
2024-03-12T07:40:17.902Z,1730.00
2024-03-12T07:41:17.329Z,1754.00
2024-03-12T07:42:17.360Z,1790.00
2024-03-12T07:43:17.518Z,1842.00
2024-03-12T07:44:17.524Z,1880.00
2024-03-12T07:45:17.504Z,1954.00
2024-03-12T07:46:17.599Z,1960.00
2024-03-12T07:47:17.593Z,1802.00
2024-03-12T07:48:17.702Z,1774.00
2024-03-12T07:49:17.773Z,1775.00
2024-03-12T07:50:17.739Z,1779.00
2024-03-12T07:51:17.756Z,1777.00
2024-03-12T07:52:17.942Z,1779.00
2024-03-12T07:53:17.866Z,1784.00
2024-03-12T07:54:17.927Z,1787.00
2024-03-12T07:55:18.021Z,1784.00
2024-03-12T07:56:18.020Z,1776.00
2024-03-12T07:57:20.053Z,1766.00
2024-03-12T07:58:18.120Z,1752.00
2024-03-12T07:59:18.144Z,1743.00
2024-03-12T08:00:18.498Z,1742.00
2024-03-12T08:01:18.148Z,1737.00
2024-03-12T08:02:18.094Z,1728.00
2024-03-12T08:03:18.112Z,1722.00
2024-03-12T08:04:18.191Z,1716.00
2024-03-12T08:05:18.149Z,1711.00
2024-03-12T08:06:18.101Z,1712.00
2024-03-12T08:07:18.151Z,1710.00
2024-03-12T08:08:18.106Z,1706.00
2024-03-12T08:09:18.171Z,1700.00
2024-03-12T08:10:18.205Z,1696.00
2024-03-12T08:11:18.124Z,1689.00
2024-03-12T08:12:18.161Z,1685.00
2024-03-12T08:13:18.149Z,1681.00
2024-03-12T08:14:18.196Z,1677.00
2024-03-12T08:15:18.120Z,1676.00
2024-03-12T08:16:18.149Z,1675.00
2024-03-12T08:17:18.133Z,1673.00
2024-03-12T08:18:21.636Z,1669.00
2024-03-12T08:19:18.335Z,1662.00
2024-03-12T08:20:18.153Z,1655.00
2024-03-12T08:21:18.112Z,1649.00
2024-03-12T08:22:18.121Z,1647.00
2024-03-12T08:23:18.107Z,1645.00
2024-03-12T08:24:18.110Z,1642.00
2024-03-12T08:25:21.443Z,1638.00
2024-03-12T08:26:18.118Z,1636.00
2024-03-12T08:27:18.109Z,1656.00
2024-03-12T08:28:18.191Z,1713.00
2024-03-12T08:29:18.135Z,1748.00
2024-03-12T08:30:18.158Z,1765.00
2024-03-12T08:31:28.247Z,1785.00
2024-03-12T08:32:19.199Z,1796.00
2024-03-12T08:33:18.169Z,1805.00
2024-03-12T08:34:18.241Z,1816.00
2024-03-12T08:35:18.142Z,1801.00
2024-03-12T08:36:18.140Z,1783.00
2024-03-12T08:37:18.190Z,1774.00
2024-03-12T08:38:18.138Z,1770.00
2024-03-12T08:39:18.261Z,1770.00
2024-03-12T08:40:18.366Z,1766.00
2024-03-12T08:41:18.149Z,1765.00
2024-03-12T08:42:18.149Z,1768.00
2024-03-12T08:43:18.170Z,1745.00
2024-03-12T08:44:18.136Z,1742.00
2024-03-12T08:45:21.281Z,1744.00
2024-03-12T08:46:18.213Z,1740.00
2024-03-12T08:47:18.177Z,1734.00
2024-03-12T08:48:18.184Z,1740.00
2024-03-12T08:49:18.301Z,1706.00
2024-03-12T08:50:18.334Z,1695.00
2024-03-12T08:51:18.184Z,1707.00
2024-03-12T08:52:18.275Z,1716.00
2024-03-12T08:53:18.204Z,1717.00
2024-03-12T08:54:18.202Z,1727.00
2024-03-12T08:55:18.302Z,1748.00
2024-03-12T08:56:18.253Z,1786.00
2024-03-12T08:57:18.300Z,1801.00
2024-03-12T08:58:18.505Z,1838.00
2024-03-12T08:59:18.448Z,1863.00
2024-03-12T09:00:18.454Z,1876.00
2024-03-12T09:01:18.581Z,1893.00
2024-03-12T09:02:18.556Z,1915.00
2024-03-12T09:03:18.689Z,1927.00
2024-03-12T09:04:18.652Z,1941.00
2024-03-12T09:05:18.617Z,1954.00
2024-03-12T09:06:18.679Z,1981.00
2024-03-12T09:07:18.699Z,1989.00
2024-03-12T09:08:18.777Z,2002.00
2024-03-12T09:09:18.712Z,2051.00
2024-03-12T09:10:18.806Z,2058.00
2024-03-12T09:11:18.793Z,2068.00
2024-03-12T09:12:18.776Z,2087.00
2024-03-12T09:13:18.837Z,2102.00
2024-03-12T09:14:18.811Z,2109.00
2024-03-12T09:15:18.825Z,2121.00
2024-03-12T09:16:19.015Z,2132.00
2024-03-12T09:17:18.884Z,2145.00
2024-03-12T09:18:19.597Z,2155.00
2024-03-12T09:19:19.018Z,2172.00
2024-03-12T09:20:18.913Z,2200.00
2024-03-12T09:21:18.918Z,2218.00
2024-03-12T09:22:18.958Z,2228.00
2024-03-12T09:23:18.951Z,2236.00
2024-03-12T09:24:19.008Z,2246.00
2024-03-12T09:25:19.751Z,2263.00
2024-03-12T09:26:18.985Z,2272.00
2024-03-12T09:27:19.013Z,2285.00
2024-03-12T09:28:19.141Z,2302.00
2024-03-12T09:29:19.045Z,2331.00
2024-03-12T09:30:19.072Z,2365.00
2024-03-12T09:31:19.155Z,2381.00
2024-03-12T09:32:19.087Z,2396.00
2024-03-12T09:33:19.070Z,2401.00
2024-03-12T09:34:19.189Z,2413.00
2024-03-12T09:35:19.085Z,2418.00
2024-03-12T09:36:19.080Z,2423.00
2024-03-12T09:37:19.238Z,2436.00
2024-03-12T09:38:19.096Z,2097.00
2024-03-12T09:39:19.201Z,1326.00
2024-03-12T09:40:19.266Z,1312.00
2024-03-12T09:41:19.260Z,1217.00
2024-03-12T09:42:19.288Z,1177.00
2024-03-12T09:43:19.333Z,1166.00
2024-03-12T09:44:19.362Z,1210.00
2024-03-12T09:45:19.327Z,1281.00
2024-03-12T09:46:19.358Z,1308.00
2024-03-12T09:47:19.361Z,1283.00
2024-03-12T09:48:19.388Z,1285.00
2024-03-12T09:49:19.527Z,1287.00
2024-03-12T09:50:19.475Z,1295.00
2024-03-12T09:51:19.523Z,1292.00
2024-03-12T09:52:19.595Z,1209.00
2024-03-12T09:53:19.602Z,1172.00
2024-03-12T09:54:19.652Z,1088.00
2024-03-12T09:55:19.692Z,1102.00
2024-03-12T09:56:19.682Z,1108.00
2024-03-12T09:57:19.721Z,1173.00
2024-03-12T09:58:19.833Z,1185.00
2024-03-12T09:59:19.788Z,1203.00
2024-03-12T10:00:19.860Z,1217.00
2024-03-12T10:01:19.949Z,1276.00
2024-03-12T10:02:20.018Z,1284.00
2024-03-12T10:03:20.040Z,1281.00
2024-03-12T10:04:20.156Z,1296.00
2024-03-12T10:05:20.169Z,1320.00
2024-03-12T10:06:20.179Z,1197.00
2024-03-12T10:07:20.271Z,1215.00
2024-03-12T10:08:20.336Z,1084.00
2024-03-12T10:09:20.388Z,1080.00
2024-03-12T10:10:20.529Z,1163.00
2024-03-12T10:11:20.592Z,1219.00
2024-03-12T10:12:20.542Z,1256.00
2024-03-12T10:13:20.635Z,1305.00
2024-03-12T10:14:20.628Z,1309.00
2024-03-12T10:15:20.744Z,1319.00
2024-03-12T10:16:20.780Z,1324.00
2024-03-12T10:17:20.759Z,1326.00
2024-03-12T10:18:20.776Z,1351.00
2024-03-12T10:19:20.872Z,1372.00
2024-03-12T10:20:20.890Z,1377.00
2024-03-12T10:21:20.870Z,1372.00
2024-03-12T10:22:20.947Z,1364.00
2024-03-12T10:23:20.911Z,1359.00
2024-03-12T10:24:20.943Z,1363.00
2024-03-12T10:25:21.002Z,1366.00
2024-03-12T10:26:20.985Z,1370.00
2024-03-12T10:27:21.010Z,1373.00
2024-03-12T10:28:21.048Z,1371.00
2024-03-12T10:29:21.077Z,1152.00
2024-03-12T10:30:21.127Z,1097.00
2024-03-12T10:31:21.316Z,1056.00
2024-03-12T10:32:21.193Z,1016.00
2024-03-12T10:33:21.223Z,979.00
2024-03-12T10:34:21.739Z,972.00
2024-03-12T10:35:21.311Z,970.00
2024-03-12T10:36:21.272Z,965.00
2024-03-12T10:37:21.423Z,961.00
2024-03-12T10:38:21.309Z,948.00
2024-03-12T10:39:21.315Z,943.00
2024-03-12T10:40:21.754Z,934.00
2024-03-12T10:41:22.765Z,915.00
2024-03-12T10:42:21.345Z,902.00
2024-03-12T10:43:21.398Z,895.00
2024-03-12T10:44:21.409Z,888.00
2024-03-12T10:45:21.481Z,882.00
2024-03-12T10:46:21.519Z,880.00
2024-03-12T10:47:21.562Z,874.00
2024-03-12T10:48:21.686Z,871.00
2024-03-12T10:49:22.195Z,863.00
2024-03-12T10:50:21.682Z,859.00
2024-03-12T10:51:21.694Z,851.00
2024-03-12T10:52:21.852Z,843.00
2024-03-12T10:53:21.797Z,829.00
2024-03-12T10:54:21.822Z,820.00
2024-03-12T10:55:21.874Z,811.00
2024-03-12T10:56:21.907Z,802.00
2024-03-12T10:57:21.868Z,792.00
2024-03-12T10:58:21.931Z,785.00
2024-03-12T10:59:21.904Z,774.00
2024-03-12T11:00:21.904Z,768.00
2024-03-12T11:01:22.278Z,763.00
2024-03-12T11:02:21.918Z,760.00
2024-03-12T11:03:21.922Z,755.00
2024-03-12T11:04:21.975Z,748.00
2024-03-12T11:05:21.951Z,745.00
2024-03-12T11:06:21.957Z,738.00
2024-03-12T11:07:21.978Z,728.00
2024-03-12T11:08:21.960Z,724.00
2024-03-12T11:09:21.955Z,720.00
2024-03-12T11:10:22.102Z,715.00
2024-03-12T11:11:22.061Z,711.00
2024-03-12T11:12:22.008Z,702.00
2024-03-12T11:13:22.133Z,700.00
2024-03-12T11:14:22.022Z,693.00
2024-03-12T11:15:22.031Z,692.00
2024-03-12T11:16:22.263Z,682.00
2024-03-12T11:17:22.067Z,677.00
2024-03-12T11:18:22.074Z,673.00
2024-03-12T11:19:22.404Z,673.00
2024-03-12T11:20:24.777Z,666.00
2024-03-12T11:21:22.056Z,660.00
2024-03-12T11:22:22.113Z,657.00
2024-03-12T11:23:22.078Z,654.00
2024-03-12T11:24:22.095Z,653.00
2024-03-12T11:25:22.131Z,649.00
2024-03-12T11:26:35.461Z,645.00
2024-03-12T11:27:23.092Z,642.00
2024-03-12T11:28:22.561Z,640.00
2024-03-12T11:29:22.071Z,639.00
2024-03-12T11:30:22.089Z,635.00
2024-03-12T11:31:22.099Z,633.00
2024-03-12T11:32:22.077Z,629.00
2024-03-12T11:33:22.092Z,627.00
2024-03-12T11:34:22.086Z,623.00
2024-03-12T11:35:22.116Z,617.00
2024-03-12T11:36:22.077Z,617.00
2024-03-12T11:37:22.117Z,615.00
2024-03-12T11:38:22.095Z,614.00
2024-03-12T11:39:22.082Z,612.00
2024-03-12T11:40:22.178Z,608.00
2024-03-12T11:41:22.087Z,608.00
2024-03-12T11:42:22.084Z,605.00
2024-03-12T11:43:22.082Z,602.00
2024-03-12T11:44:22.098Z,601.00
2024-03-12T11:45:22.094Z,596.00
2024-03-12T11:46:22.395Z,594.00
2024-03-12T11:47:22.101Z,592.00
2024-03-12T11:48:22.093Z,590.00
2024-03-12T11:49:22.098Z,590.00
2024-03-12T11:50:22.106Z,587.00
2024-03-12T11:51:22.100Z,585.00
2024-03-12T11:52:22.125Z,583.00
2024-03-12T11:53:22.122Z,583.00
2024-03-12T11:54:22.121Z,581.00
2024-03-12T11:55:22.121Z,580.00
2024-03-12T11:56:22.099Z,578.00
2024-03-12T11:57:22.125Z,578.00
2024-03-12T11:58:22.116Z,577.00
2024-03-12T11:59:22.126Z,575.00
2024-03-12T12:00:22.144Z,573.00
2024-03-12T12:01:22.147Z,573.00
2024-03-12T12:02:22.154Z,573.00
2024-03-12T12:03:22.126Z,568.00
2024-03-12T12:04:22.138Z,561.00
2024-03-12T12:05:22.132Z,561.00
2024-03-12T12:06:22.117Z,559.00
2024-03-12T12:07:22.176Z,556.00
2024-03-12T12:08:22.125Z,552.00
2024-03-12T12:09:22.138Z,551.00
2024-03-12T12:10:22.164Z,551.00
2024-03-12T12:11:22.200Z,548.00
2024-03-12T12:12:22.149Z,547.00
2024-03-12T12:13:22.143Z,544.00
2024-03-12T12:14:22.136Z,543.00
2024-03-12T12:15:22.139Z,543.00
2024-03-12T12:16:22.225Z,541.00
2024-03-12T12:17:22.130Z,539.00
2024-03-12T12:18:22.135Z,538.00
2024-03-12T12:19:25.731Z,536.00
2024-03-12T12:20:23.185Z,535.00
2024-03-12T12:21:22.209Z,536.00
2024-03-12T12:22:22.186Z,534.00